Terminal Aerodrome Forecast
Issued by NWS Wakefield, VA

Home | Current Version | Previous Version | Text Only | Print | Product List | Glossary On
Versions: 1 2 3 4 5 6 7 8 9 10 11 12 13 14 15 16 17
000
FTUS41 KAKQ 071830 AAA
TAFECG
TAF AMD
KECG 071830Z 0719/0818 22012KT P6SM VCTS FEW030CB SCT250
     FM072000 21008KT P6SM SCT050
     FM080000 19007KT P6SM SKC
     FM081200 21010KT P6SM SCT050=

USA.gov is the U.S. government's official web portal to all federal, state and local government web resources and services.